Here is the Quick Look data you requested

The Data originates at the National Weather Service, and is made available here by the UAlbany Department of Atmospheric and Environmental Sciences

Surface Observations

KSBY 241154Z 25006KT 10SM CLR 19/16 A2981 RMK AO2 SLP097 T01890156 10189 20161
 53013=
KSBY 241254Z 24007KT 10SM CLR 20/16 A2982 RMK AO2 SLP099 T02000156=
KSBY 241354Z 28008KT 10SM CLR 23/16 A2983 RMK AO2 SLP102 T02330156=
KSBY 241454Z 32011G19KT 10SM CLR 23/13 A2984 RMK AO2 SLP105 T02330133 53008=
KSBY 241554Z 29012G18KT 10SM CLR 23/13 A2984 RMK AO2 SLP107 T02330133=
KSBY 241654Z 27009KT 10SM CLR 24/13 A2984 RMK AO2 SLP106 T02440128=
KSBY 241754Z 27014G21KT 10SM CLR 24/08 A2983 RMK AO2 SLP102 T02440078 10250
 20189 58003=
KSBY 241854Z 29011G22KT 10SM CLR 24/05 A2983 RMK AO2 PK WND 29027/1815 SLP103
 T02440050=
KSBY 241954Z 28012G22KT 10SM CLR 24/06 A2982 RMK AO2 SLP099 T02440056=
KSBY 242054Z 31013G17KT 10SM CLR 23/05 A2983 RMK AO2 SLP102 T02330050 55000=
KSBY 242154Z 31011KT 10SM CLR 23/05 A2984 RMK AO2 SLP107 T02330050=
KSBY 242254Z 33005KT 10SM CLR 22/07 A2984 RMK AO2 SLP107 T02170067=
KSBY 242354Z 00000KT 10SM CLR 19/07 A2985 RMK AO2 SLP109 T01890072 10244 20189
 51007=
KSBY 250054Z 00000KT 10SM CLR 16/09 A2986 RMK AO2 SLP114 T01610094=
KSBY 250154Z 00000KT 10SM CLR 15/08 A2988 RMK AO2 SLP119 T01500083=
KSBY 250254Z AUTO 00000KT 10SM CLR 13/09 A2989 RMK AO2 SLP122 T01280089 51012=
KSBY 250354Z AUTO 00000KT 10SM SCT075 OVC100 13/10 A2989 RMK AO2 SLP125
 T01330100=
KSBY 250454Z AUTO 00000KT 10SM SCT075 SCT100 14/10 A2990 RMK AO2 SLP126
 T01390100 402500128=
KSBY 250554Z AUTO 20004KT 10SM FEW060 12/09 A2990 RMK AO2 SLP125 T01220094
 10189 20122 50004=
KSBY 250654Z AUTO 09003KT 10SM FEW070 13/10 A2988 RMK AO2 SLP119 T01280100=
KSBY 250754Z AUTO 12003KT 10SM OVC110 13/11 A2988 RMK AO2 SLP121 T01330111=
KSBY 250854Z AUTO 00000KT 10SM SCT100 13/11 A2989 RMK AO2 SLP122 T01330106
 55003=
KSBY 250954Z 12003KT 10SM FEW100 SCT120 13/11 A2989 RMK AO2 SLP124 T01280111=
KSBY 251054Z 00000KT 10SM OVC090 14/12 A2991 RMK AO2 SLP132 T01390122=
KSBY 251154Z 13003KT 10SM BKN090 14/12 A2992 RMK AO2 SLP135 T01440122 10150
 20122 53013=
KSBY 251254Z 11003KT 10SM FEW110 18/13 A2992 RMK AO2 SLP133 T01780128=
KSBY 251354Z 10005KT 10SM CLR 21/11 A2991 RMK AO2 SLP131 T02110106=
KSBY 251454Z 13007KT 10SM CLR 22/10 A2993 RMK AO2 SLP135 T02170100 53001=
KSBY 251554Z 12008KT 10SM FEW045 SCT065 BKN120 22/08 A2992 RMK AO2 SLP133
 T02220078=
KSBY 251654Z 10010KT 10SM CLR 23/09 A2990 RMK AO2 SLP126 T02280094=
KSBY 251754Z 09008KT 10SM CLR 21/10 A2988 RMK AO2 SLP121 T02110100 10228 20144
 58014=